LGPZ/PVK METAR and TAF weather

Enter ICAO airport designator
Station Type Date Time Source
LGPZ METAR 2021/09/23 22:50 UTC NOAA

LGPZ 232250Z AUTO VRB01KT //// // ////// 15/09 Q1018 RE//


Station Type Date Time Source
LGPZ Decoded METAR 2021/09/23 22:50 UTC NOAA

Aktion Airport , Greece (LGPZ) 38-37N 020-46E 4M
Sep 23, 2021 - 06:50 PM EDT / 2021.09.23 2250 UTC
Wind: Variable at 1 MPH (1 KT):0
Temperature: 59 F (15 C)
Dew Point: 48 F (9 C)
Relative Humidity: 67%
Pressure (altimeter): 30.06 in. Hg (1018 hPa)
ob: LGPZ 232250Z AUTO VRB01KT //// // ////// 15/09 Q1018 RE//
cycle: 23

Station Type Date Time Source
LGPZ TAF 2021/09/23 18:27 UTC NOAA

TAF LGPZ 231700Z 2318/2418 29012KT 9999 FEW020
TEMPO 2320/2322 VRB05KT

Example: see airport list